createdAt,value
2022-08-19T00:01:56.712Z,11.00
2022-08-19T00:04:30.706Z,12.05
2022-08-19T00:06:59.137Z,10.77
2022-08-19T00:09:26.309Z,11.73
2022-08-19T00:11:57.556Z,10.38
2022-08-19T00:14:26.280Z,9.13
2022-08-19T00:16:55.308Z,11.07
2022-08-19T00:19:23.999Z,10.45
2022-08-19T00:21:51.748Z,8.85
2022-08-19T00:24:18.656Z,10.63
2022-08-19T00:26:46.500Z,10.18
2022-08-19T00:29:18.258Z,7.90
2022-08-19T00:31:46.336Z,7.72
2022-08-19T00:34:15.375Z,8.45
2022-08-19T00:36:43.767Z,7.68
2022-08-19T00:39:12.376Z,6.82
2022-08-19T00:41:40.285Z,7.50
2022-08-19T00:44:13.573Z,7.78
2022-08-19T00:46:45.308Z,6.93
2022-08-19T00:49:52.118Z,7.22
2022-08-19T00:52:32.278Z,6.93
2022-08-19T00:55:01.187Z,7.68
2022-08-19T00:57:38.878Z,8.60
2022-08-19T01:00:13.768Z,7.97
2022-08-19T01:02:42.290Z,7.72
2022-08-19T01:05:14.475Z,8.70
2022-08-19T01:07:42.099Z,8.80
2022-08-19T01:10:13.958Z,10.18
2022-08-19T01:12:41.264Z,10.40
2022-08-19T01:15:12.939Z,10.07
2022-08-19T01:17:41.887Z,7.95
2022-08-19T01:20:20.738Z,7.53
2022-08-19T01:22:59.667Z,7.05
2022-08-19T01:25:33.149Z,7.30
2022-08-19T01:28:10.526Z,7.80
2022-08-19T01:30:38.415Z,7.55
2022-08-19T01:33:06.491Z,7.22
2022-08-19T01:35:33.695Z,7.15
2022-08-19T01:38:08.679Z,7.28
2022-08-19T01:40:40.858Z,7.32
2022-08-19T01:43:07.964Z,7.95
2022-08-19T01:45:36.816Z,7.47
2022-08-19T01:48:04.780Z,7.68
2022-08-19T01:50:33.938Z,7.93
2022-08-19T01:53:07.739Z,8.52
2022-08-19T01:55:41.390Z,8.68
2022-08-19T01:58:19.938Z,8.48
2022-08-19T02:00:47.450Z,8.05
2022-08-19T02:03:14.928Z,7.90
2022-08-19T02:05:42.852Z,8.32
2022-08-19T02:08:10.240Z,8.95
2022-08-19T02:10:44.035Z,8.30
2022-08-19T02:13:13.111Z,8.10
2022-08-19T02:15:40.686Z,8.75
2022-08-19T02:18:09.267Z,8.20
2022-08-19T02:20:38.695Z,7.63
2022-08-19T02:23:13.315Z,8.23
2022-08-19T02:25:41.305Z,8.18
2022-08-19T02:28:08.721Z,8.43
2022-08-19T02:30:35.538Z,8.65
2022-08-19T02:33:02.409Z,8.40
2022-08-19T02:35:29.244Z,8.18
2022-08-19T02:38:14.809Z,8.02
2022-08-19T02:40:42.030Z,7.82
2022-08-19T02:43:11.177Z,7.93
2022-08-19T02:45:42.645Z,7.88
2022-08-19T02:48:14.898Z,8.77
2022-08-19T02:50:55.656Z,8.07
2022-08-19T02:53:27.348Z,8.60
2022-08-19T02:55:54.739Z,8.40
2022-08-19T02:58:22.809Z,8.68
2022-08-19T03:00:54.270Z,9.32
2022-08-19T03:03:22.155Z,8.93
2022-08-19T03:05:56.450Z,8.13
2022-08-19T03:08:26.757Z,8.77
2022-08-19T03:10:53.999Z,10.13
2022-08-19T03:13:21.101Z,8.85
2022-08-19T03:15:49.451Z,8.25
2022-08-19T03:18:18.031Z,8.43
2022-08-19T03:20:49.776Z,8.82
2022-08-19T03:23:17.726Z,9.13
2022-08-19T03:26:05.622Z,9.48
2022-08-19T03:28:35.811Z,8.85
2022-08-19T03:31:44.644Z,8.20
2022-08-19T03:34:01.702Z,7.53
2022-08-19T03:36:30.560Z,8.52
2022-08-19T03:39:01.412Z,8.98
2022-08-19T03:41:44.670Z,9.23
2022-08-19T03:44:18.288Z,8.65
2022-08-19T03:46:51.334Z,9.52
2022-08-19T03:49:19.675Z,9.63
2022-08-19T03:51:48.880Z,9.70
2022-08-19T03:54:19.370Z,9.93
2022-08-19T03:56:49.159Z,10.07
2022-08-19T03:59:27.465Z,11.13
2022-08-19T04:02:00.936Z,13.73
2022-08-19T04:04:28.969Z,15.27
2022-08-19T04:06:57.672Z,15.02
2022-08-19T04:09:25.332Z,14.40
2022-08-19T04:11:55.831Z,16.45
2022-08-19T04:14:31.118Z,16.58
2022-08-19T04:17:01.088Z,16.77
2022-08-19T04:19:30.743Z,16.23
2022-08-19T04:21:58.247Z,16.63
2022-08-19T04:24:25.708Z,16.60
2022-08-19T04:26:52.821Z,17.08
2022-08-19T04:29:26.255Z,19.00
2022-08-19T04:31:55.403Z,19.13
2022-08-19T04:34:25.713Z,19.67
2022-08-19T04:36:55.587Z,18.95
2022-08-19T04:39:48.338Z,19.08
2022-08-19T04:42:36.751Z,19.27
2022-08-19T04:45:09.451Z,17.90
2022-08-19T04:47:47.490Z,18.60
2022-08-19T04:50:26.980Z,21.70
2022-08-19T04:52:54.639Z,25.35
2022-08-19T04:55:21.738Z,28.08
2022-08-19T04:57:48.597Z,31.05
2022-08-19T05:00:15.699Z,31.95
2022-08-19T05:02:42.600Z,33.47
2022-08-19T05:05:10.120Z,34.95
2022-08-19T05:07:37.587Z,33.47
2022-08-19T05:10:06.736Z,33.90
2022-08-19T05:12:34.102Z,35.42
2022-08-19T05:15:01.751Z,35.55
2022-08-19T05:17:33.322Z,37.35
2022-08-19T05:20:23.863Z,36.20
2022-08-19T05:22:50.873Z,36.00
2022-08-19T05:25:21.605Z,38.17
2022-08-19T05:27:49.321Z,39.38
2022-08-19T05:30:17.041Z,38.05
2022-08-19T05:32:44.755Z,38.78
2022-08-19T05:35:12.641Z,36.80
2022-08-19T05:37:41.247Z,36.58
2022-08-19T05:40:10.037Z,36.65
2022-08-19T05:42:37.021Z,38.58
2022-08-19T05:45:05.430Z,37.95
2022-08-19T05:47:33.108Z,38.63
2022-08-19T05:50:02.851Z,39.72
2022-08-19T05:52:32.547Z,40.40
2022-08-19T05:55:00.451Z,37.70
2022-08-19T05:57:29.859Z,39.53
2022-08-19T05:59:59.138Z,38.95
2022-08-19T06:02:29.037Z,38.42
2022-08-19T06:04:55.925Z,40.90
2022-08-19T06:07:23.445Z,37.05
2022-08-19T06:09:59.079Z,39.35
2022-08-19T06:12:34.071Z,39.03
2022-08-19T06:17:36.286Z,40.97
2022-08-19T06:20:11.225Z,40.17
2022-08-19T06:22:43.733Z,40.00
2022-08-19T06:25:11.709Z,40.97
2022-08-19T06:27:48.272Z,38.30
2022-08-19T06:30:25.963Z,40.83
2022-08-19T06:32:52.904Z,39.95
2022-08-19T06:35:20.270Z,41.30
2022-08-19T06:37:47.960Z,42.60
2022-08-19T06:40:16.063Z,39.92
2022-08-19T06:42:49.464Z,39.58
2022-08-19T06:45:24.684Z,38.75
2022-08-19T06:47:57.055Z,37.83
2022-08-19T06:50:27.044Z,38.47
2022-08-19T06:52:55.193Z,36.35
2022-08-19T06:55:22.228Z,37.72
2022-08-19T06:57:49.257Z,37.78
2022-08-19T07:00:17.027Z,36.45
2022-08-19T07:02:49.597Z,36.97
2022-08-19T07:05:23.090Z,37.45
2022-08-19T07:07:51.066Z,36.88
2022-08-19T07:10:18.818Z,37.13
2022-08-19T07:12:46.075Z,34.35
2022-08-19T07:15:13.363Z,36.20
2022-08-19T07:17:41.845Z,38.22
2022-08-19T07:20:10.195Z,34.80
2022-08-19T07:22:41.464Z,34.70
2022-08-19T07:25:10.693Z,33.85
2022-08-19T07:27:39.611Z,33.70
2022-08-19T07:30:12.263Z,31.92
2022-08-19T07:32:40.008Z,32.10
2022-08-19T07:35:08.332Z,30.63
2022-08-19T07:37:37.918Z,29.75
2022-08-19T07:40:07.771Z,30.67
2022-08-19T07:42:34.723Z,28.63
2022-08-19T07:45:01.610Z,28.85
2022-08-19T07:47:48.968Z,27.83
2022-08-19T07:50:16.910Z,27.85
2022-08-19T07:52:47.132Z,29.20
2022-08-19T07:55:41.471Z,28.77
2022-08-19T07:58:05.941Z,27.60
2022-08-19T08:00:32.989Z,29.75
2022-08-19T08:02:59.825Z,28.85
2022-08-19T08:05:45.676Z,31.23
2022-08-19T08:08:33.662Z,30.58
2022-08-19T08:11:01.515Z,28.98
2022-08-19T08:13:29.364Z,29.77
2022-08-19T08:15:57.596Z,29.77
2022-08-19T08:18:27.963Z,30.85
2022-08-19T08:23:26.790Z,31.20
2022-08-19T08:25:57.737Z,31.92
2022-08-19T08:28:29.497Z,32.05
2022-08-19T08:30:58.643Z,30.63
2022-08-19T08:33:34.830Z,30.63
2022-08-19T08:36:09.919Z,30.45
2022-08-19T08:38:41.819Z,31.17
2022-08-19T08:41:42.017Z,31.67
2022-08-19T08:44:23.757Z,29.70
2022-08-19T08:47:00.629Z,28.15
2022-08-19T08:49:43.529Z,30.02
2022-08-19T08:55:20.472Z,28.58
2022-08-19T08:57:52.219Z,27.98
2022-08-19T09:00:35.926Z,29.33
2022-08-19T09:03:07.427Z,28.10
2022-08-19T09:08:51.485Z,26.38
2022-08-19T09:11:44.744Z,28.17
2022-08-19T09:14:51.772Z,26.73
2022-08-19T09:17:28.429Z,26.77
2022-08-19T09:20:26.247Z,25.80
2022-08-19T09:22:53.276Z,24.80
2022-08-19T09:25:26.993Z,25.20
2022-08-19T09:28:02.438Z,26.45
2022-08-19T09:30:34.710Z,26.60
2022-08-19T09:33:02.216Z,26.15
2022-08-19T09:35:30.829Z,26.50
2022-08-19T09:38:00.090Z,25.23
2022-08-19T09:40:33.452Z,19.23
2022-08-19T09:43:11.842Z,13.52
2022-08-19T09:45:40.779Z,12.27
2022-08-19T09:48:07.684Z,11.73
2022-08-19T09:50:39.383Z,11.43
2022-08-19T09:53:19.551Z,13.20
2022-08-19T09:55:46.492Z,13.52
2022-08-19T09:58:13.374Z,13.35
2022-08-19T10:00:40.276Z,12.40
2022-08-19T10:03:07.219Z,11.45
2022-08-19T10:05:50.386Z,12.00
2022-08-19T10:08:30.258Z,11.30
2022-08-19T10:10:58.975Z,11.25
2022-08-19T10:13:30.153Z,10.80
2022-08-19T10:16:10.001Z,11.20
2022-08-19T10:18:38.669Z,9.18
2022-08-19T10:21:22.888Z,8.27
2022-08-19T10:23:57.373Z,7.18
2022-08-19T10:26:32.324Z,7.87
2022-08-19T10:29:00.164Z,6.88
2022-08-19T10:31:59.695Z,6.75
2022-08-19T10:34:27.431Z,6.22
2022-08-19T10:37:00.419Z,6.28
2022-08-19T10:39:31.470Z,11.85
2022-08-19T10:42:00.040Z,10.32
2022-08-19T10:44:32.591Z,8.63
2022-08-19T10:49:28.326Z,7.82
2022-08-19T10:52:19.398Z,7.07
2022-08-19T10:55:08.609Z,7.10
2022-08-19T10:58:04.114Z,7.03
2022-08-19T11:00:24.524Z,7.28
2022-08-19T11:02:52.489Z,7.05
2022-08-19T11:05:20.466Z,8.13
2022-08-19T11:07:52.715Z,8.00
2022-08-19T11:10:22.203Z,7.00
2022-08-19T11:12:49.610Z,7.65
2022-08-19T11:15:16.793Z,6.82
2022-08-19T11:17:44.917Z,6.55
2022-08-19T11:20:16.204Z,7.25
2022-08-19T11:22:43.804Z,6.97
2022-08-19T11:25:12.447Z,6.50
2022-08-19T11:27:47.053Z,6.30
2022-08-19T11:30:14.975Z,6.70
2022-08-19T11:32:48.605Z,6.70
2022-08-19T11:35:22.657Z,6.22
2022-08-19T11:37:50.485Z,6.70
2022-08-19T11:40:17.570Z,6.35
2022-08-19T11:42:57.597Z,6.03
2022-08-19T11:45:30.192Z,6.15
2022-08-19T11:47:58.122Z,5.50
2022-08-19T11:50:25.709Z,5.85
2022-08-19T11:52:57.173Z,5.85
2022-08-19T11:55:24.489Z,6.32
2022-08-19T11:57:51.324Z,6.47
2022-08-19T12:00:18.509Z,6.38
2022-08-19T12:02:45.428Z,5.50
2022-08-19T12:05:13.230Z,5.72
2022-08-19T12:07:44.647Z,6.32
2022-08-19T12:10:11.806Z,5.72
2022-08-19T12:12:43.617Z,5.90
2022-08-19T12:15:11.920Z,6.00
2022-08-19T12:17:39.632Z,5.90
2022-08-19T12:20:08.681Z,5.63
2022-08-19T12:22:37.729Z,6.05
2022-08-19T12:25:07.011Z,6.20
2022-08-19T12:27:40.869Z,5.70
2022-08-19T12:30:13.023Z,5.82
2022-08-19T12:32:40.585Z,6.05
2022-08-19T12:35:10.133Z,6.55
2022-08-19T12:37:37.141Z,6.70
2022-08-19T12:40:05.268Z,6.88
2022-08-19T12:42:32.323Z,6.50
2022-08-19T12:44:59.205Z,6.10
2022-08-19T12:47:27.411Z,6.32
2022-08-19T12:49:56.055Z,6.55
2022-08-19T12:52:28.264Z,7.43
2022-08-19T12:54:57.691Z,7.13
2022-08-19T12:57:32.801Z,7.15
2022-08-19T13:00:17.638Z,7.57
2022-08-19T13:02:47.507Z,8.25
2022-08-19T13:05:23.643Z,7.80
2022-08-19T13:07:53.455Z,7.70
2022-08-19T13:10:22.722Z,7.72
2022-08-19T13:12:51.947Z,8.52
2022-08-19T13:15:24.249Z,8.02
2022-08-19T13:17:53.848Z,7.45
2022-08-19T13:20:22.422Z,7.90
2022-08-19T13:22:49.826Z,7.50
2022-08-19T13:25:19.485Z,7.72
2022-08-19T13:27:47.987Z,8.15
2022-08-19T13:30:36.587Z,7.38
2022-08-19T13:33:15.294Z,7.90
2022-08-19T13:35:47.165Z,7.35
2022-08-19T13:38:16.444Z,8.38
2022-08-19T13:40:43.541Z,8.50
2022-08-19T13:43:22.370Z,8.38
2022-08-19T13:45:56.720Z,7.85
2022-08-19T13:48:27.190Z,9.00
2022-08-19T13:50:54.976Z,8.73
2022-08-19T13:53:21.952Z,9.90
2022-08-19T13:55:49.595Z,9.20
2022-08-19T13:58:16.425Z,8.20
2022-08-19T14:00:47.210Z,9.52
2022-08-19T14:03:15.403Z,8.93
2022-08-19T14:05:42.470Z,8.93
2022-08-19T14:08:10.227Z,9.70
2022-08-19T14:10:37.242Z,11.18
2022-08-19T14:13:05.231Z,9.82
2022-08-19T14:15:32.678Z,10.70
2022-08-19T14:17:59.543Z,10.23
2022-08-19T14:20:27.225Z,9.85
2022-08-19T14:22:55.708Z,10.35
2022-08-19T14:25:28.688Z,9.13
2022-08-19T14:27:57.219Z,9.10
2022-08-19T14:30:29.190Z,9.32
2022-08-19T14:32:59.037Z,8.63
2022-08-19T14:35:27.723Z,8.35
2022-08-19T14:37:55.985Z,8.55
2022-08-19T14:40:26.969Z,8.60
2022-08-19T14:43:05.438Z,8.52
2022-08-19T14:45:36.979Z,8.45
2022-08-19T14:48:06.122Z,8.45
2022-08-19T14:50:34.082Z,8.25
2022-08-19T14:53:11.888Z,8.02
2022-08-19T14:55:44.447Z,7.72
2022-08-19T14:58:29.137Z,7.10
2022-08-19T15:01:00.752Z,7.95
2022-08-19T15:03:28.810Z,7.22
2022-08-19T15:05:58.234Z,7.57
2022-08-19T15:08:26.402Z,7.97
2022-08-19T15:10:53.568Z,7.50
2022-08-19T15:13:20.522Z,7.30
2022-08-19T15:15:48.352Z,7.85
2022-08-19T15:18:15.723Z,7.90
2022-08-19T15:20:44.393Z,7.95
2022-08-19T15:23:18.117Z,8.40
2022-08-19T15:25:45.549Z,7.90
2022-08-19T15:28:12.443Z,8.77
2022-08-19T15:30:40.772Z,8.23
2022-08-19T15:33:08.288Z,8.48
2022-08-19T15:35:35.231Z,8.30
2022-08-19T15:38:02.124Z,8.85
2022-08-19T15:40:29.066Z,8.48
2022-08-19T15:42:58.730Z,8.30
2022-08-19T15:45:32.483Z,9.25
2022-08-19T15:48:01.293Z,8.52
2022-08-19T15:50:28.799Z,8.32
2022-08-19T15:53:03.594Z,8.32
2022-08-19T15:55:34.936Z,7.93
2022-08-19T15:58:29.382Z,8.07
2022-08-19T16:01:24.509Z,9.32
2022-08-19T16:04:15.907Z,9.18
2022-08-19T16:06:50.100Z,9.13
2022-08-19T16:09:23.493Z,8.35
2022-08-19T16:11:56.827Z,9.13
2022-08-19T16:14:26.471Z,8.73
2022-08-19T16:16:54.925Z,8.18
2022-08-19T16:19:21.921Z,8.60
2022-08-19T16:21:52.456Z,9.18
2022-08-19T16:24:22.353Z,9.10
2022-08-19T16:26:49.796Z,9.07
2022-08-19T16:29:27.754Z,8.93
2022-08-19T16:32:04.140Z,9.60
2022-08-19T16:34:32.109Z,9.68
2022-08-19T16:37:00.631Z,9.82
2022-08-19T16:39:27.492Z,10.00
2022-08-19T16:41:54.316Z,7.35
2022-08-19T16:44:21.968Z,6.60
2022-08-19T16:46:58.806Z,6.20
2022-08-19T16:49:52.821Z,4.97
2022-08-19T16:52:19.550Z,5.40
2022-08-19T16:54:47.413Z,5.00
2022-08-19T16:57:14.694Z,4.55
2022-08-19T16:59:48.176Z,4.43
2022-08-19T17:02:18.596Z,4.13
2022-08-19T17:04:55.961Z,4.32
2022-08-19T17:07:33.073Z,5.38
2022-08-19T17:10:02.417Z,5.10
2022-08-19T17:12:32.063Z,4.85
2022-08-19T17:15:01.558Z,4.70
2022-08-19T17:17:30.125Z,5.00
2022-08-19T17:19:59.133Z,5.47
2022-08-19T17:22:26.234Z,5.53
2022-08-19T17:24:53.113Z,5.80
2022-08-19T17:27:23.585Z,7.15
2022-08-19T17:29:50.477Z,7.32
2022-08-19T17:32:17.308Z,7.32
2022-08-19T17:34:54.067Z,9.02
2022-08-19T17:37:21.096Z,7.88
2022-08-19T17:39:47.942Z,6.88
2022-08-19T17:42:14.902Z,7.50
2022-08-19T17:44:42.078Z,7.13
2022-08-19T17:47:10.806Z,7.88
2022-08-19T17:49:37.594Z,8.48
2022-08-19T17:52:09.438Z,9.27
2022-08-19T17:54:36.882Z,8.55
2022-08-19T17:57:03.954Z,9.27
2022-08-19T17:59:31.089Z,11.98
2022-08-19T18:01:59.785Z,11.15
2022-08-19T18:04:27.455Z,12.60
2022-08-19T18:06:55.805Z,11.90
2022-08-19T18:09:42.247Z,12.73
2022-08-19T18:12:15.648Z,11.15
2022-08-19T18:17:17.250Z,9.38
2022-08-19T18:19:47.268Z,10.52
2022-08-19T18:22:24.173Z,10.38
2022-08-19T18:24:51.440Z,9.70
2022-08-19T18:27:18.474Z,9.43
2022-08-19T18:29:45.908Z,9.82
2022-08-19T18:32:16.367Z,8.48
2022-08-19T18:34:45.886Z,6.20
2022-08-19T18:37:12.869Z,7.10
2022-08-19T18:39:58.831Z,5.55
2022-08-19T18:42:44.171Z,4.78
2022-08-19T18:45:30.621Z,4.53
2022-08-19T18:48:26.422Z,3.50
2022-08-19T18:50:56.614Z,4.03
2022-08-19T18:53:24.167Z,4.43
2022-08-19T18:55:55.081Z,4.85
2022-08-19T18:58:33.080Z,6.45
2022-08-19T19:01:30.305Z,9.65
2022-08-19T19:04:03.639Z,9.93
2022-08-19T19:06:37.851Z,11.85
2022-08-19T19:09:05.864Z,10.85
2022-08-19T19:11:40.357Z,9.07
2022-08-19T19:14:18.993Z,7.03
2022-08-19T19:16:55.211Z,8.77
2022-08-19T19:19:22.021Z,9.77
2022-08-19T19:21:51.028Z,9.85
2022-08-19T19:24:30.933Z,11.05
2022-08-19T19:27:05.324Z,8.63
2022-08-19T19:29:32.930Z,6.53
2022-08-19T19:31:59.744Z,6.38
2022-08-19T19:34:29.233Z,5.40
2022-08-19T19:36:57.199Z,5.13
2022-08-19T19:39:30.533Z,4.90
2022-08-19T19:42:19.985Z,5.10
2022-08-19T19:44:54.923Z,5.00
2022-08-19T19:47:25.567Z,4.97
2022-08-19T19:50:13.213Z,4.60
2022-08-19T19:52:41.004Z,4.65
2022-08-19T19:55:17.798Z,4.82
2022-08-19T19:57:47.087Z,5.47
2022-08-19T20:00:18.264Z,4.70
2022-08-19T20:02:49.269Z,5.13
2022-08-19T20:05:20.959Z,5.65
2022-08-19T20:08:06.976Z,4.85
2022-08-19T20:10:33.920Z,5.28
2022-08-19T20:13:02.491Z,5.30
2022-08-19T20:15:32.276Z,4.97
2022-08-19T20:18:02.197Z,4.88
2022-08-19T20:20:30.172Z,6.00
2022-08-19T20:22:57.326Z,5.30
2022-08-19T20:25:24.884Z,5.35
2022-08-19T20:27:52.079Z,5.93
2022-08-19T20:30:21.754Z,6.10
2022-08-19T20:32:50.762Z,6.25
2022-08-19T20:35:21.006Z,5.97
2022-08-19T20:37:48.867Z,6.78
2022-08-19T20:40:21.565Z,7.50
2022-08-19T20:42:50.513Z,7.57
2022-08-19T20:45:33.276Z,7.40
2022-08-19T20:48:03.102Z,6.85
2022-08-19T20:50:35.901Z,7.55
2022-08-19T20:53:15.176Z,7.13
2022-08-19T20:55:49.170Z,7.18
2022-08-19T20:58:21.136Z,7.57
2022-08-19T21:00:49.511Z,7.85
2022-08-19T21:03:19.421Z,7.78
2022-08-19T21:05:49.619Z,7.68
2022-08-19T21:08:19.595Z,7.82
2022-08-19T21:10:49.149Z,7.78
2022-08-19T21:13:17.400Z,7.88
2022-08-19T21:15:45.226Z,7.88
2022-08-19T21:18:15.757Z,7.75
2022-08-19T21:20:46.922Z,7.70
2022-08-19T21:23:24.803Z,7.50
2022-08-19T21:25:54.917Z,7.22
2022-08-19T21:28:34.533Z,7.25
2022-08-19T21:31:05.702Z,7.43
2022-08-19T21:33:32.837Z,7.82
2022-08-19T21:36:00.674Z,7.32
2022-08-19T21:38:27.738Z,7.25
2022-08-19T21:40:55.318Z,7.47
2022-08-19T21:43:23.602Z,7.10
2022-08-19T21:45:50.955Z,7.32
2022-08-19T21:48:18.445Z,7.18
2022-08-19T21:50:48.412Z,6.63
2022-08-19T21:53:19.590Z,6.95
2022-08-19T21:55:53.569Z,7.22
2022-08-19T21:58:28.374Z,6.30
2022-08-19T22:00:59.453Z,6.80
2022-08-19T22:03:27.485Z,6.60
2022-08-19T22:05:54.304Z,6.85
2022-08-19T22:08:21.128Z,6.88
2022-08-19T22:10:49.603Z,7.45
2022-08-19T22:13:18.195Z,7.57
2022-08-19T22:15:46.137Z,7.70
2022-08-19T22:18:13.675Z,7.57
2022-08-19T22:20:40.962Z,8.40
2022-08-19T22:23:07.838Z,7.88
2022-08-19T22:25:40.403Z,8.20
2022-08-19T22:28:12.169Z,7.90
2022-08-19T22:30:42.389Z,9.00
2022-08-19T22:33:15.786Z,9.35
2022-08-19T22:35:43.956Z,10.30
2022-08-19T22:38:12.539Z,9.95
2022-08-19T22:40:48.317Z,10.43
2022-08-19T22:43:21.331Z,11.00
2022-08-19T22:48:21.780Z,12.00
2022-08-19T22:51:08.673Z,12.57
2022-08-19T22:53:39.131Z,11.40
2022-08-19T22:56:10.839Z,11.68
2022-08-19T22:58:42.305Z,12.25
2022-08-19T23:01:14.667Z,11.68
2022-08-19T23:03:57.569Z,12.88
2022-08-19T23:06:29.734Z,11.25
2022-08-19T23:09:00.345Z,12.00
2022-08-19T23:11:27.341Z,10.93
2022-08-19T23:13:54.259Z,12.68
2022-08-19T23:16:21.120Z,12.70
2022-08-19T23:18:48.478Z,12.07
2022-08-19T23:21:16.509Z,12.65
2022-08-19T23:23:43.550Z,13.20
2022-08-19T23:26:11.674Z,11.38
2022-08-19T23:28:57.860Z,12.95
2022-08-19T23:31:26.773Z,13.20
2022-08-19T23:33:53.571Z,12.48
2022-08-19T23:36:21.494Z,12.35
2022-08-19T23:38:51.899Z,12.82
2022-08-19T23:41:21.531Z,12.25
2022-08-19T23:43:51.452Z,12.20
2022-08-19T23:46:27.738Z,12.85
2022-08-19T23:48:56.500Z,12.68
2022-08-19T23:51:23.870Z,11.60
2022-08-19T23:53:50.684Z,10.88
2022-08-19T23:56:17.582Z,12.25
2022-08-19T23:58:45.453Z,12.65
